Time;durP1;ratioP1;P1;durP2;ratioP2;P2;SDS_P1;SDS_P2;PMS_P1;PMS_P2;Temp;Humidity;BMP_temperature;BMP_pressure;BME280_temperature;BME280_humidity;BME280_pressure;Samples;Min_cycle;Max_cycle;Signal;HPM_P1;HPM_P2
2021/07/31 00:00:46;;;;;;;10.00;4.70;;;;;;;18.76;71.86;99833.38;5990875;23;20162;-96
2021/07/31 00:21:10;;;;;;;9.25;5.00;;;;;;;18.95;71.34;99826.84;4966834;29;20054;-96
2021/07/31 00:23:36;;;;;;;7.13;5.10;;;;;;;19.02;71.22;99838.47;4964070;28;20035;-96
2021/07/31 00:26:01;;;;;;;6.63;4.45;;;;;;;18.87;71.80;99832.19;4966223;29;20028;-96
2021/07/31 00:28:27;;;;;;;5.75;4.63;;;;;;;18.86;71.15;99819.91;4968494;28;20023;-96
2021/07/31 00:30:53;;;;;;;6.57;4.07;;;;;;;18.58;72.39;99825.63;5248366;23;20058;-96
2021/07/31 00:33:18;;;;;;;8.73;4.03;;;;;;;18.91;70.77;99830.03;4965050;28;20036;-96
2021/07/31 00:35:44;;;;;;;6.70;4.40;;;;;;;18.88;71.21;99831.22;4960646;28;20053;-96
2021/07/31 00:38:09;;;;;;;5.55;4.00;;;;;;;19.01;70.72;99842.13;4959331;28;20059;-96
2021/07/31 00:40:35;;;;;;;4.30;3.33;;;;;;;18.91;70.63;99825.53;4960201;29;20101;-96
2021/07/31 00:43:04;;;;;;;5.03;3.85;;;;;;;18.92;70.34;99829.88;4962608;28;20024;-96
2021/07/31 00:45:30;;;;;;;4.55;3.63;;;;;;;18.81;70.72;99839.03;4964469;28;20039;-95
2021/07/31 00:47:55;;;;;;;7.05;4.55;;;;;;;18.82;70.78;99840.72;4961260;28;20026;-96
2021/07/31 00:50:21;;;;;;;4.50;3.08;;;;;;;18.91;70.46;99840.66;4963889;28;20027;-95
2021/07/31 00:52:47;;;;;;;6.18;3.42;;;;;;;18.85;70.33;99831.53;4962319;28;20027;-95
2021/07/31 00:55:13;;;;;;;4.82;3.53;;;;;;;18.91;70.64;99860.13;4958750;28;20049;-96
2021/07/31 00:57:40;;;;;;;10.02;3.92;;;;;;;18.76;71.17;99838.69;4960035;28;20023;-96
2021/07/31 01:00:08;;;;;;;5.03;3.67;;;;;;;18.84;70.55;99840.53;4960199;28;20133;-95
2021/07/31 01:02:34;;;;;;;4.47;2.90;;;;;;;18.91;70.04;99841.50;4961355;28;20031;-96
2021/07/31 01:04:59;;;;;;;4.93;3.38;;;;;;;18.92;70.78;99848.50;4958435;29;20553;-96
2021/07/31 01:07:25;;;;;;;4.57;3.92;;;;;;;18.85;70.83;99841.38;4959616;28;20106;-96
2021/07/31 01:09:50;;;;;;;4.88;3.78;;;;;;;18.71;71.15;99845.53;4960044;28;20116;-95
2021/07/31 01:12:16;;;;;;;8.95;3.70;;;;;;;18.68;71.88;99846.72;4957569;28;20031;-96
2021/07/31 01:14:41;;;;;;;7.05;3.50;;;;;;;18.67;71.12;99828.25;4959697;28;20034;-94
2021/07/31 01:17:11;;;;;;;4.93;3.53;;;;;;;18.72;71.67;99847.19;4957870;28;20443;-96
2021/07/31 01:19:37;;;;;;;3.92;3.22;;;;;;;18.71;72.13;99838.38;4958814;28;20028;-96
2021/07/31 01:22:03;;;;;;;6.90;3.28;;;;;;;18.80;71.65;99847.22;4956231;28;20030;-96
2021/07/31 01:24:28;;;;;;;6.05;3.83;;;;;;;18.59;72.41;99829.94;4955820;28;20441;-95
2021/07/31 01:26:53;;;;;;;5.00;3.45;;;;;;;18.70;72.67;99835.88;4957856;28;20027;-96
2021/07/31 01:29:20;;;;;;;10.93;4.10;;;;;;;18.74;72.46;99845.19;4957263;28;20042;-95
2021/07/31 01:31:46;;;;;;;4.97;3.40;;;;;;;18.73;72.25;99827.56;4955359;29;20455;-96
2021/07/31 01:34:11;;;;;;;4.65;3.38;;;;;;;18.82;72.75;99842.53;4957159;28;20023;-96
2021/07/31 01:36:37;;;;;;;3.78;3.17;;;;;;;18.79;72.70;99832.22;4955116;29;20034;-96
2021/07/31 01:39:03;;;;;;;6.22;3.28;;;;;;;18.77;72.65;99826.22;4956345;28;20433;-95
2021/07/31 01:41:29;;;;;;;4.88;3.35;;;;;;;18.77;72.07;99835.03;4955051;29;20042;-96
2021/07/31 01:43:55;;;;;;;4.13;2.95;;;;;;;18.76;72.21;99832.53;4955575;28;20038;-95
2021/07/31 01:46:22;;;;;;;6.18;3.58;;;;;;;18.79;72.46;99841.03;4954818;29;20470;-96
2021/07/31 01:48:47;;;;;;;5.15;3.97;;;;;;;19.08;71.30;99839.59;4955489;29;20027;-96
2021/07/31 01:51:13;;;;;;;7.60;3.60;;;;;;;19.10;70.95;99844.75;4955474;29;20023;-95
2021/07/31 01:53:39;;;;;;;6.10;3.53;;;;;;;19.06;70.49;99838.94;4955235;28;20027;-96
2021/07/31 01:56:04;;;;;;;6.57;3.30;;;;;;;19.02;70.55;99843.78;4955729;29;20493;-96
2021/07/31 01:58:30;;;;;;;4.30;3.20;;;;;;;19.01;70.48;99839.44;4955130;29;20034;-96
2021/07/31 02:00:57;;;;;;;4.10;2.90;;;;;;;19.02;70.66;99838.47;4955576;29;20034;-96
2021/07/31 02:03:23;;;;;;;5.75;2.92;;;;;;;19.01;71.04;99842.13;4955367;28;20034;-96
2021/07/31 02:05:48;;;;;;;8.40;3.97;;;;;;;19.02;71.02;99845.63;4957319;29;20023;-95
2021/07/31 02:08:14;;;;;;;7.88;3.28;;;;;;;18.94;71.20;99843.81;4960392;28;20036;-96
2021/07/31 02:10:39;;;;;;;6.25;3.42;;;;;;;18.99;71.49;99841.47;4963279;29;20430;-96
2021/07/31 02:13:05;;;;;;;7.57;4.10;;;;;;;18.99;71.15;99838.78;4966885;28;20129;-96
2021/07/31 02:15:30;;;;;;;7.80;3.90;;;;;;;19.09;71.50;99843.09;4961652;29;20023;-96
2021/07/31 02:17:56;;;;;;;5.80;3.63;;;;;;;19.10;71.25;99834.94;4961360;28;20027;-95
2021/07/31 02:20:22;;;;;;;6.75;3.63;;;;;;;19.14;71.50;99840.75;4962588;29;20061;-96
2021/07/31 02:22:48;;;;;;;8.88;4.30;;;;;;;19.01;71.49;99842.13;4962207;28;20086;-96
2021/07/31 02:25:14;;;;;;;4.10;3.42;;;;;;;19.12;71.03;99837.44;4963522;28;20023;-96
2021/07/31 02:27:39;;;;;;;5.45;3.70;;;;;;;19.16;70.97;99836.91;4964913;28;20053;-96
2021/07/31 02:30:05;;;;;;;5.43;3.53;;;;;;;19.17;71.20;99835.06;4963171;29;20030;-96
2021/07/31 02:32:30;;;;;;;4.93;3.38;;;;;;;19.19;70.98;99849.88;4964732;29;20031;-96
2021/07/31 02:34:56;;;;;;;6.85;4.43;;;;;;;19.09;71.08;99840.44;4964476;28;20027;-96
2021/07/31 02:37:21;;;;;;;5.65;4.03;;;;;;;19.14;70.88;99841.56;4961633;28;20029;-96
2021/07/31 02:39:46;;;;;;;8.23;4.00;;;;;;;19.20;70.69;99834.72;4960587;29;20031;-95
2021/07/31 02:42:13;;;;;;;8.90;4.53;;;;;;;19.23;71.01;99842.34;4961058;29;20031;-95
2021/07/31 02:44:38;;;;;;;5.32;3.45;;;;;;;19.26;70.98;99839.34;4960741;28;20117;-95
2021/07/31 02:47:03;;;;;;;6.18;4.40;;;;;;;19.27;70.79;99838.34;4961588;28;20050;-95
2021/07/31 02:49:29;;;;;;;5.35;4.47;;;;;;;19.18;70.96;99842.06;4962170;29;20031;-96
2021/07/31 02:51:54;;;;;;;5.78;4.55;;;;;;;19.26;70.72;99841.19;4962042;28;20027;-95
2021/07/31 02:54:20;;;;;;;4.93;4.43;;;;;;;19.25;70.55;99837.69;4960667;28;20026;-95
2021/07/31 02:56:45;;;;;;;5.80;4.57;;;;;;;19.22;70.81;99849.50;4961733;29;20023;-96
2021/07/31 02:59:10;;;;;;;5.72;4.47;;;;;;;19.27;70.81;99843.66;4965077;29;20023;-96
2021/07/31 03:01:36;;;;;;;6.82;5.13;;;;;;;19.26;71.86;99842.00;4967392;29;20494;-96
2021/07/31 03:04:02;;;;;;;5.57;4.22;;;;;;;19.29;71.08;99838.97;4961390;28;20401;-96
2021/07/31 03:06:28;;;;;;;5.20;3.95;;;;;;;19.30;70.97;99840.66;4965384;29;20042;-96
2021/07/31 03:08:53;;;;;;;5.32;4.13;;;;;;;18.96;72.01;99844.47;4964798;29;20019;-96
2021/07/31 03:11:19;;;;;;;6.25;4.38;;;;;;;18.97;72.28;99851.44;4967373;28;20027;-96
2021/07/31 03:13:44;;;;;;;4.78;4.25;;;;;;;19.09;72.04;99843.91;4964685;28;20038;-96
2021/07/31 03:16:10;;;;;;;5.70;4.13;;;;;;;19.21;71.36;99847.88;4961776;28;20027;-95
2021/07/31 03:18:35;;;;;;;8.43;4.57;;;;;;;19.08;71.38;99844.09;4960278;28;20031;-96
2021/07/31 03:21:00;;;;;;;6.22;3.80;;;;;;;19.14;71.30;99846.06;4957136;29;20070;-96
2021/07/31 03:23:26;;;;;;;8.32;4.25;;;;;;;19.26;71.07;99836.69;4958641;28;20062;-96
2021/07/31 03:26:00;;;;;;;4.38;3.88;;;;;;;19.34;71.08;99838.47;4959119;29;20422;-96
2021/07/31 03:28:26;;;;;;;4.82;3.75;;;;;;;19.27;71.20;99838.34;4958255;29;20042;-96
2021/07/31 03:30:52;;;;;;;6.00;4.22;;;;;;;19.21;71.46;99841.69;4961282;29;20024;-96
2021/07/31 03:33:18;;;;;;;4.85;4.00;;;;;;;19.10;71.58;99836.78;4958034;28;20038;-94
2021/07/31 03:35:44;;;;;;;5.28;4.18;;;;;;;19.19;71.62;99835.72;4957460;29;20118;-95
2021/07/31 03:38:10;;;;;;;6.97;4.10;;;;;;;19.24;71.58;99841.38;4957900;29;20027;-95
2021/07/31 03:40:36;;;;;;;4.03;3.38;;;;;;;19.44;70.41;99843.59;4957189;29;20023;-96
2021/07/31 03:43:01;;;;;;;5.50;3.78;;;;;;;19.26;71.07;99841.19;4957231;28;20036;-95
2021/07/31 03:45:26;;;;;;;3.60;3.30;;;;;;;19.40;70.64;99841.25;4956844;29;20114;-96
2021/07/31 03:47:52;;;;;;;5.28;3.83;;;;;;;19.31;70.56;99839.66;4957122;29;20450;-96
2021/07/31 03:50:18;;;;;;;6.45;3.92;;;;;;;19.37;70.28;99840.78;4956815;28;20021;-96
2021/07/31 03:52:43;;;;;;;3.78;3.45;;;;;;;19.41;70.02;99837.59;4958231;29;20567;-96
2021/07/31 03:55:09;;;;;;;5.65;4.93;;;;;;;19.35;70.44;99837.47;4961249;28;20064;-96
2021/07/31 03:57:34;;;;;;;7.03;3.67;;;;;;;19.28;70.96;99832.03;4958807;28;20106;-96
2021/07/31 04:00:01;;;;;;;5.30;3.70;;;;;;;19.34;70.90;99841.97;4958419;29;20500;-96
2021/07/31 04:02:26;;;;;;;4.55;3.30;;;;;;;19.40;70.72;99835.94;4959503;29;20019;-95
2021/07/31 04:04:52;;;;;;;3.28;2.97;;;;;;;19.43;70.43;99834.75;4961159;28;20190;-96
2021/07/31 04:07:18;;;;;;;4.50;3.28;;;;;;;19.45;70.36;99838.09;4962383;29;20034;-95
2021/07/31 04:09:43;;;;;;;3.58;3.28;;;;;;;19.36;70.82;99831.16;4958930;29;20486;-96
2021/07/31 04:12:09;;;;;;;5.85;3.67;;;;;;;19.41;70.92;99840.28;4959646;28;20027;-96
2021/07/31 04:14:34;;;;;;;6.90;3.83;;;;;;;19.30;71.01;99835.34;4960178;28;20063;-96
2021/07/31 04:17:03;;;;;;;6.43;3.83;;;;;;;19.41;70.97;99844.75;4961469;29;20038;-96
2021/07/31 04:19:28;;;;;;;3.83;3.17;;;;;;;19.42;71.33;99847.22;4964122;29;20026;-95
2021/07/31 04:21:56;;;;;;;6.30;4.00;;;;;;;19.37;71.25;99841.63;4966656;29;20043;-95
2021/07/31 04:24:22;;;;;;;5.38;3.78;;;;;;;19.45;71.08;99847.88;4960796;28;20039;-95
2021/07/31 04:26:48;;;;;;;5.35;4.38;;;;;;;19.44;70.99;99846.25;4959947;29;20027;-96
2021/07/31 04:29:14;;;;;;;4.95;4.03;;;;;;;19.42;70.96;99847.22;4958238;29;20504;-96
2021/07/31 04:31:39;;;;;;;6.07;4.40;;;;;;;19.51;70.33;99841.84;4960056;28;20035;-96
2021/07/31 04:34:04;;;;;;;5.40;4.38;;;;;;;19.53;70.43;99847.84;4960532;28;20496;-96
2021/07/31 04:36:32;;;;;;;4.30;3.83;;;;;;;19.61;70.52;99858.47;4957091;29;20027;-96
2021/07/31 04:38:57;;;;;;;4.32;3.92;;;;;;;19.57;70.46;99857.97;4957824;29;20358;-96
2021/07/31 04:41:23;;;;;;;4.43;3.88;;;;;;;19.59;70.55;99855.16;4959448;29;20030;-96
2021/07/31 04:43:48;;;;;;;3.92;3.63;;;;;;;19.61;70.52;99861.94;4958359;28;20023;-96
2021/07/31 04:46:14;;;;;;;5.10;4.07;;;;;;;19.62;70.45;99865.44;4959313;29;20020;-95
2021/07/31 04:48:39;;;;;;;4.68;3.92;;;;;;;19.58;70.56;99853.47;4959367;29;20077;-96
2021/07/31 04:51:05;;;;;;;6.40;4.13;;;;;;;19.59;70.84;99852.47;4960438;29;20074;-95
2021/07/31 04:53:31;;;;;;;4.75;4.35;;;;;;;19.61;70.55;99864.59;4960660;28;20035;-95
2021/07/31 04:55:57;;;;;;;4.82;4.32;;;;;;;19.60;70.75;99856.78;4961897;29;20477;-96
2021/07/31 04:58:23;;;;;;;7.03;4.97;;;;;;;19.65;70.64;99865.09;4962594;29;20023;-96
2021/07/31 05:00:49;;;;;;;5.18;4.47;;;;;;;19.71;70.58;99864.41;4962454;29;20055;-96
2021/07/31 05:03:15;;;;;;;6.05;4.82;;;;;;;19.59;70.43;99863.13;4962870;28;20098;-96
2021/07/31 05:05:42;;;;;;;5.78;5.13;;;;;;;19.55;71.13;99867.97;4966110;29;20035;-96
2021/07/31 05:08:08;;;;;;;7.30;5.90;;;;;;;19.51;71.54;99865.81;4967584;29;20024;-96
2021/07/31 05:10:33;;;;;;;7.70;5.55;;;;;;;19.60;71.38;99872.78;4968016;29;20498;-96
2021/07/31 05:12:59;;;;;;;5.57;4.85;;;;;;;19.67;70.62;99873.72;4965272;28;20470;-95
2021/07/31 05:15:24;;;;;;;6.85;5.88;;;;;;;19.72;70.82;99870.56;4965872;29;20035;-96
2021/07/31 05:17:49;;;;;;;7.13;5.28;;;;;;;19.72;70.67;99870.56;4964729;29;20027;-95
2021/07/31 05:20:15;;;;;;;7.80;6.65;;;;;;;19.64;70.96;99874.06;4966171;29;20030;-96
2021/07/31 05:22:40;;;;;;;8.15;6.40;;;;;;;19.69;70.83;99870.88;4969281;29;20576;-96
2021/07/31 05:25:06;;;;;;;10.95;7.43;;;;;;;19.73;70.44;99873.06;4966545;28;20091;-96
2021/07/31 05:27:31;;;;;;;8.20;6.97;;;;;;;19.72;70.62;99876.72;4968507;29;20031;-96
2021/07/31 05:29:56;;;;;;;10.80;8.65;;;;;;;19.74;70.82;99882.69;4966992;29;20035;-96
2021/07/31 05:32:22;;;;;;;14.63;10.40;;;;;;;19.73;71.27;99880.22;4969364;29;20045;-96
2021/07/31 05:34:47;;;;;;;10.43;9.40;;;;;;;19.81;70.90;99880.97;4968783;28;20059;-96
2021/07/31 05:37:13;;;;;;;9.75;8.43;;;;;;;19.86;70.98;99885.78;4968918;29;20091;-96
2021/07/31 05:39:38;;;;;;;12.30;10.90;;;;;;;19.88;70.85;99885.59;4965322;29;20056;-95
2021/07/31 05:42:05;;;;;;;16.58;12.10;;;;;;;19.92;70.48;99886.91;4964495;28;20086;-96
2021/07/31 05:44:32;;;;;;;14.80;12.43;;;;;;;19.98;70.38;99894.19;4965660;28;20027;-96
2021/07/31 05:46:57;;;;;;;17.75;14.10;;;;;;;20.07;69.92;99890.44;4968500;29;20109;-96
2021/07/31 05:49:22;;;;;;;21.23;15.60;;;;;;;20.04;70.36;99892.66;4966177;29;20046;-96
2021/07/31 05:51:48;;;;;;;18.50;16.13;;;;;;;20.03;70.13;99899.00;4967222;29;20031;-96
2021/07/31 05:54:13;;;;;;;17.33;14.02;;;;;;;20.09;70.35;99904.44;4969520;28;20034;-96
2021/07/31 05:56:41;;;;;;;18.65;15.60;;;;;;;20.00;69.71;99900.16;4968124;29;20054;-96
2021/07/31 05:59:07;;;;;;;17.67;14.75;;;;;;;20.07;70.12;99905.63;4968701;29;20045;-95
2021/07/31 06:01:35;;;;;;;25.10;14.73;;;;;;;20.10;69.81;99902.59;4969530;29;20039;-96
2021/07/31 06:04:01;;;;;;;19.75;14.98;;;;;;;20.00;70.58;99906.34;4969562;28;20031;-96
2021/07/31 06:06:27;;;;;;;21.55;15.00;;;;;;;20.05;70.01;99900.47;4969957;29;20023;-96
2021/07/31 06:08:52;;;;;;;19.23;13.15;;;;;;;20.24;69.56;99900.97;4952285;29;20036;-96
2021/07/31 06:11:18;;;;;;;16.65;13.50;;;;;;;20.20;69.27;99905.84;4968035;29;20031;-96
2021/07/31 06:13:43;;;;;;;19.67;13.80;;;;;;;20.23;69.57;99894.00;4967794;28;20046;-96
2021/07/31 06:16:09;;;;;;;19.00;12.30;;;;;;;20.38;69.02;99903.69;4966910;29;20027;-96
2021/07/31 06:18:37;;;;;;;22.20;11.90;;;;;;;20.30;69.01;99900.25;4969111;29;20023;-96
2021/07/31 06:21:03;;;;;;;16.60;9.98;;;;;;;20.50;69.05;99906.75;4969291;29;20031;-96
2021/07/31 06:23:29;;;;;;;11.15;9.82;;;;;;;20.35;68.99;99908.56;4968860;28;20091;-96
2021/07/31 06:26:02;;;;;;;10.57;9.05;;;;;;;20.44;68.82;99914.63;4970143;29;20030;-96
2021/07/31 06:28:27;;;;;;;11.13;8.93;;;;;;;20.47;68.06;99909.78;4966007;29;20051;-96
2021/07/31 06:30:53;;;;;;;8.55;7.47;;;;;;;20.55;67.80;99911.53;4967300;29;20038;-96
2021/07/31 06:33:19;;;;;;;10.18;7.13;;;;;;;20.60;68.05;99918.03;4971375;28;20027;-96
2021/07/31 06:35:45;;;;;;;7.72;6.75;;;;;;;20.72;67.75;99921.06;4971715;29;20038;-96
2021/07/31 06:38:12;;;;;;;10.07;6.90;;;;;;;20.80;67.65;99918.31;4968959;29;20032;-96
2021/07/31 06:40:37;;;;;;;8.27;6.40;;;;;;;20.80;66.99;99918.31;4968580;29;20083;-96
2021/07/31 06:43:03;;;;;;;8.50;6.40;;;;;;;20.71;67.33;99918.56;4965529;28;20023;-96
2021/07/31 06:45:28;;;;;;;7.28;5.43;;;;;;;20.75;67.29;99914.53;4970735;29;20039;-96
2021/07/31 06:47:54;;;;;;;7.18;5.22;;;;;;;20.90;66.76;99920.72;4967970;28;20027;-96
2021/07/31 06:50:19;;;;;;;12.35;5.88;;;;;;;20.90;65.86;99920.72;4971797;29;20118;-96
2021/07/31 06:52:45;;;;;;;9.13;5.22;;;;;;;20.91;66.30;99918.88;4970901;29;20034;-95
2021/07/31 06:55:11;;;;;;;5.78;4.70;;;;;;;21.04;66.22;99920.91;4970732;28;20030;-96
2021/07/31 06:57:36;;;;;;;7.88;5.43;;;;;;;20.98;66.33;99920.63;4972184;29;20023;-96
2021/07/31 07:00:03;;;;;;;12.02;5.38;;;;;;;21.08;65.84;99914.19;4970804;29;20401;-96
2021/07/31 07:02:29;;;;;;;7.68;5.15;;;;;;;21.02;66.17;99913.09;5043916;23;20054;-96
2021/07/31 07:04:54;;;;;;;9.90;4.75;;;;;;;21.14;66.45;99900.09;4966214;28;20035;-96
2021/07/31 07:07:20;;;;;;;7.68;4.57;;;;;;;21.24;65.68;99915.84;4967903;28;20371;-96
2021/07/31 07:09:46;;;;;;;6.25;4.03;;;;;;;21.11;65.68;99913.81;4972883;29;20027;-96
2021/07/31 07:12:12;;;;;;;5.00;3.65;;;;;;;21.06;65.18;99910.88;5130793;23;20048;-96
2021/07/31 07:14:37;;;;;;;3.90;3.25;;;;;;;21.16;64.62;99901.56;4979781;29;20067;-96
2021/07/31 07:17:06;;;;;;;5.55;3.28;;;;;;;21.24;65.08;99908.66;4980129;28;20066;-96
2021/07/31 07:19:32;;;;;;;6.32;2.80;;;;;;;20.98;64.66;99915.28;4981767;28;20034;-96
2021/07/31 07:21:58;;;;;;;4.20;3.17;;;;;;;21.25;64.28;99907.66;4979934;28;20035;-96
2021/07/31 07:24:24;;;;;;;8.20;3.22;;;;;;;21.28;64.47;99917.94;4980138;28;20121;-96
2021/07/31 07:26:49;;;;;;;4.97;3.00;;;;;;;21.12;64.29;99916.28;4980017;28;20040;-96
2021/07/31 07:29:15;;;;;;;5.10;2.60;;;;;;;21.37;64.29;99924.03;4981017;28;20050;-96
2021/07/31 07:31:41;;;;;;;6.75;2.58;;;;;;;21.44;63.95;99929.47;4981156;29;20050;-96
2021/07/31 07:34:07;;;;;;;3.53;2.47;;;;;;;21.56;63.51;99925.28;4981469;29;20016;-96
2021/07/31 07:36:32;;;;;;;9.82;2.70;;;;;;;21.59;63.35;99932.94;4980813;28;20026;-96
2021/07/31 07:38:58;;;;;;;10.18;2.50;;;;;;;21.51;63.24;99928.53;4979666;29;20027;-96
2021/07/31 07:41:24;;;;;;;6.60;2.85;;;;;;;21.60;63.35;99931.91;4977711;28;20498;-96
2021/07/31 07:43:49;;;;;;;3.30;2.80;;;;;;;21.20;64.68;99924.19;4979960;28;20035;-96
2021/07/31 07:49:08;;;;;;;3.35;2.60;;;;;;;21.48;64.50;99928.06;5020960;23;20058;-96
2021/07/31 07:51:34;;;;;;;6.88;2.78;;;;;;;21.64;64.38;99935.84;4981202;28;20082;-96
2021/07/31 07:53:59;;;;;;;3.78;2.92;;;;;;;21.70;63.39;99940.47;4980175;28;20039;-96
2021/07/31 07:56:25;;;;;;;2.65;2.38;;;;;;;21.16;64.14;99932.78;4981227;28;20079;-96
2021/07/31 07:58:53;;;;;;;3.65;2.22;;;;;;;21.42;63.73;99931.47;5051065;23;20067;-96
2021/07/31 08:03:50;;;;;;;;;;;;;;;21.66;63.03;99952.53;4959417;29;20044;-96
2021/07/31 08:06:17;;;;;;;4.60;2.63;;;;;;;21.56;62.76;99947.50;4957534;29;19942;-96
2021/07/31 08:08:44;;;;;;;2.97;2.38;;;;;;;21.53;62.57;99944.38;4959412;29;20024;-96
2021/07/31 08:11:09;;;;;;;5.60;2.20;;;;;;;21.64;62.37;99941.19;4959073;28;20034;-96
2021/07/31 08:13:35;;;;;;;5.93;2.50;;;;;;;21.68;61.88;99949.69;4958585;29;20035;-96
2021/07/31 08:16:01;;;;;;;5.30;2.05;;;;;;;21.51;62.31;99946.41;4959741;28;20027;-96
2021/07/31 08:18:26;;;;;;;3.03;2.08;;;;;;;21.80;61.98;99945.53;4957480;29;20451;-96
2021/07/31 08:20:52;;;;;;;5.32;2.13;;;;;;;22.13;61.24;99947.69;4959009;28;20016;-96
2021/07/31 08:23:21;;;;;;;4.70;1.95;;;;;;;21.85;61.36;99953.78;4959154;29;20008;-96
2021/07/31 08:25:46;;;;;;;4.15;1.90;;;;;;;22.47;60.55;99965.75;4960118;29;20039;-96
2021/07/31 08:28:12;;;;;;;4.30;2.15;;;;;;;22.57;59.68;99952.88;4975081;28;20032;-96
2021/07/31 08:30:38;;;;;;;5.47;2.13;;;;;;;22.58;58.71;99949.16;4957886;29;20035;-96
2021/07/31 08:43:16;;;;;;;3.47;1.27;;;;;;;22.38;59.27;99969.56;4968427;29;20059;-96
2021/07/31 08:45:42;;;;;;;3.88;1.63;;;;;;;22.28;58.85;99958.38;4971317;28;20031;-96
2021/07/31 08:48:09;;;;;;;4.13;1.25;;;;;;;22.14;59.18;99960.06;4968757;28;20035;-96
2021/07/31 08:50:36;;;;;;;2.70;1.38;;;;;;;22.32;59.80;99960.47;4968952;29;20023;-96
2021/07/31 08:53:02;;;;;;;1.92;1.30;;;;;;;22.65;59.02;99964.44;4966682;29;20044;-96
2021/07/31 08:55:27;;;;;;;3.42;1.00;;;;;;;22.65;56.94;99959.06;4972083;29;20031;-96
2021/07/31 08:57:53;;;;;;;2.70;1.08;;;;;;;22.87;58.54;99958.03;4964450;29;20074;-95
2021/07/31 09:00:19;;;;;;;3.83;1.10;;;;;;;22.93;57.76;99962.59;4962505;29;20050;-96
2021/07/31 09:02:46;;;;;;;2.35;1.17;;;;;;;23.35;55.48;99974.19;4960771;29;20374;-96
2021/07/31 09:05:13;;;;;;;3.95;0.98;;;;;;;23.79;55.57;99965.94;4961134;29;20031;-96
2021/07/31 09:07:39;;;;;;;1.45;0.93;;;;;;;24.02;54.92;99968.28;4960461;28;20041;-96
2021/07/31 09:10:24;;;;;;;1.85;1.00;;;;;;;24.11;53.71;99984.00;4962818;28;20149;-96
2021/07/31 09:12:59;;;;;;;2.40;1.10;;;;;;;23.98;53.60;99975.91;4962734;29;20031;-96
2021/07/31 09:15:37;;;;;;;1.20;0.73;;;;;;;23.80;53.66;99975.66;4963327;29;20027;-96
2021/07/31 09:18:35;;;;;;;1.40;0.60;;;;;;;23.89;54.23;99977.94;4957556;28;20058;-96
2021/07/31 09:21:15;;;;;;;0.98;0.70;;;;;;;23.60;53.30;99962.97;5007139;23;20043;-96
2021/07/31 09:23:48;;;;;;;0.95;0.60;;;;;;;24.07;52.92;99980.06;4971354;28;20046;-96
2021/07/31 09:26:18;;;;;;;1.75;0.65;;;;;;;23.98;52.19;99969.72;4971301;28;20024;-96
2021/07/31 09:28:46;;;;;;;1.00;0.50;;;;;;;23.91;52.01;99972.38;4968657;28;20034;-96
2021/07/31 09:31:17;;;;;;;2.50;0.60;;;;;;;23.93;51.25;99976.53;4968302;28;20011;-96
2021/07/31 09:33:48;;;;;;;2.15;0.88;;;;;;;24.09;51.62;99972.63;4971447;28;20042;-96
2021/07/31 09:36:15;;;;;;;1.90;1.10;;;;;;;24.48;51.54;99962.97;4971497;29;20033;-96
2021/07/31 09:41:34;;;;;;;2.80;0.65;;;;;;;24.64;49.91;99979.72;5034253;23;20059;-96
2021/07/31 09:44:16;;;;;;;3.25;1.10;;;;;;;25.46;47.86;99980.25;4959102;28;20118;-95
2021/07/31 09:46:47;;;;;;;2.03;1.30;;;;;;;26.20;47.02;99976.16;4958440;28;20425;-95
2021/07/31 09:49:23;;;;;;;2.00;1.42;;;;;;;26.06;46.22;99975.41;4957249;28;20110;-96
2021/07/31 09:51:51;;;;;;;1.77;1.35;;;;;;;25.50;46.49;99971.53;4957882;28;20032;-95
2021/07/31 09:54:19;;;;;;;3.60;1.70;;;;;;;25.82;46.53;99981.53;4955158;28;20050;-95
2021/07/31 09:56:55;;;;;;;1.45;1.35;;;;;;;25.66;46.02;99982.84;4955237;28;20023;-96
2021/07/31 09:59:22;;;;;;;4.20;1.40;;;;;;;24.99;47.27;99976.81;4956609;28;20113;-94
2021/07/31 10:01:57;;;;;;;1.60;1.27;;;;;;;25.92;47.99;99981.91;4954745;29;20326;-96
2021/07/31 10:04:23;;;;;;;3.30;1.30;;;;;;;25.60;46.61;99979.13;4955829;28;20545;-96
2021/07/31 10:06:49;;;;;;;2.00;1.35;;;;;;;26.44;45.81;99977.25;4954835;28;20090;-93
2021/07/31 10:09:14;;;;;;;3.13;1.20;;;;;;;26.88;45.35;99986.19;4954990;28;20034;-95
2021/07/31 10:11:40;;;;;;;1.88;1.02;;;;;;;26.98;43.77;99984.88;4954861;28;20390;-94
2021/07/31 10:14:08;;;;;;;1.80;1.17;;;;;;;26.78;45.91;99990.44;4955905;28;20031;-95
2021/07/31 10:16:37;;;;;;;3.50;1.17;;;;;;;26.70;44.66;99984.28;4954039;28;20389;-94
2021/07/31 10:19:05;;;;;;;2.88;1.10;;;;;;;25.32;46.82;99991.03;4957014;28;20034;-95
2021/07/31 10:21:49;;;;;;;1.98;0.90;;;;;;;26.33;46.06;99983.31;4955146;28;20031;-96
2021/07/31 10:24:15;;;;;;;3.03;1.30;;;;;;;26.40;45.24;99983.25;4956040;28;20070;-95
2021/07/31 10:27:15;;;;;;;1.50;1.40;;;;;;;26.66;46.60;99988.47;4955454;28;20460;-96
2021/07/31 10:29:40;;;;;;;1.95;1.17;;;;;;;26.62;45.44;99986.41;4959418;28;20027;-95
2021/07/31 10:32:21;;;;;;;3.13;1.50;;;;;;;26.46;46.24;99988.59;4958079;28;20030;-95
2021/07/31 10:34:52;;;;;;;2.73;1.80;;;;;;;26.70;45.51;99988.88;4958327;28;20019;-96
2021/07/31 10:37:27;;;;;;;2.42;1.75;;;;;;;26.25;45.81;99983.59;4958761;28;20023;-95
2021/07/31 10:39:53;;;;;;;2.13;1.40;;;;;;;26.39;45.87;99981.63;4961453;29;20047;-96
2021/07/31 10:42:18;;;;;;;1.58;1.13;;;;;;;26.04;45.22;99982.88;4961207;28;20031;-95
2021/07/31 10:45:14;;;;;;;3.45;1.77;;;;;;;25.83;46.73;99977.78;4958267;28;20454;-95
2021/07/31 10:47:40;;;;;;;2.97;1.60;;;;;;;26.35;45.07;99986.59;4958255;28;20038;-95
2021/07/31 10:50:27;;;;;;;2.85;1.52;;;;;;;26.52;43.98;99976.13;4958426;28;20027;-96
2021/07/31 10:53:03;;;;;;;2.63;2.00;;;;;;;26.79;44.36;99974.06;4959243;28;20034;-96
2021/07/31 10:55:35;;;;;;;4.13;1.88;;;;;;;27.61;44.03;99981.09;4957936;28;20510;-96
2021/07/31 10:58:09;;;;;;;;;;;;;;;27.20;43.73;99975.31;4957308;28;20433;-96
2021/07/31 11:00:42;;;;;;;4.45;1.88;;;;;;;26.59;44.19;99973.41;4958483;28;20452;-95
2021/07/31 11:03:31;;;;;;;3.53;2.17;;;;;;;26.80;44.33;99989.19;4959470;28;20065;-96
2021/07/31 11:06:06;;;;;;;4.18;2.03;;;;;;;27.16;43.92;99979.50;4956753;28;20120;-95
2021/07/31 11:08:52;;;;;;;4.75;1.80;;;;;;;26.81;43.76;99979.22;4958737;28;20114;-96
2021/07/31 11:11:17;;;;;;;4.32;1.90;;;;;;;27.22;43.93;99972.41;4959033;28;20030;-95
2021/07/31 11:13:46;;;;;;;5.22;1.80;;;;;;;28.28;42.00;99978.31;4957884;28;20027;-96
2021/07/31 11:16:14;;;;;;;2.40;1.50;;;;;;;28.88;40.69;99975.47;4957926;29;20573;-96
2021/07/31 11:18:39;;;;;;;3.78;1.60;;;;;;;28.94;40.46;99968.31;4956214;28;20649;-96
2021/07/31 11:21:29;;;;;;;3.08;1.40;;;;;;;28.18;41.36;99978.88;4957235;28;20079;-96
2021/07/31 11:24:00;;;;;;;5.60;1.55;;;;;;;29.21;40.21;99974.06;4957232;28;20090;-96
2021/07/31 11:26:43;;;;;;;5.50;1.27;;;;;;;29.99;37.74;99971.81;4958060;28;20027;-96
2021/07/31 11:29:20;;;;;;;2.90;1.00;;;;;;;30.60;38.03;99976.66;4957403;28;20035;-96
2021/07/31 11:32:11;;;;;;;6.10;1.10;;;;;;;31.05;35.84;99978.44;4957093;28;20027;-95
2021/07/31 11:34:47;;;;;;;2.42;0.85;;;;;;;30.38;35.89;99968.47;4957031;28;20066;-96
2021/07/31 11:37:15;;;;;;;4.40;0.70;;;;;;;30.14;37.24;99967.75;4957045;28;20038;-96
2021/07/31 11:39:41;;;;;;;2.40;0.80;;;;;;;29.78;38.47;99975.22;4955296;28;20031;-96
2021/07/31 11:42:07;;;;;;;1.33;0.63;;;;;;;29.37;38.19;99977.09;4956735;28;20027;-96
2021/07/31 11:44:34;;;;;;;2.17;0.65;;;;;;;29.03;38.13;99977.69;4956817;28;20027;-96
2021/07/31 11:47:00;;;;;;;2.85;0.90;;;;;;;28.93;38.52;99984.75;4955341;29;20038;-96
2021/07/31 11:49:30;;;;;;;1.77;0.55;;;;;;;29.34;38.26;99980.25;4956885;28;20525;-95
2021/07/31 11:52:01;;;;;;;1.52;0.70;;;;;;;29.05;39.40;99982.88;4956609;28;20027;-96
2021/07/31 11:54:27;;;;;;;2.30;0.70;;;;;;;29.38;38.12;99971.44;4956540;28;20023;-95
2021/07/31 11:56:55;;;;;;;2.10;0.73;;;;;;;29.38;39.60;99971.44;4956803;28;20246;-96
2021/07/31 11:59:35;;;;;;;2.83;1.10;;;;;;;28.94;39.53;99968.31;4955463;29;20394;-95
2021/07/31 12:02:01;;;;;;;8.05;1.90;;;;;;;28.79;39.79;99976.91;4956975;28;20031;-96
2021/07/31 12:04:46;;;;;;;3.45;1.25;;;;;;;28.67;38.93;99973.34;4956414;28;20581;-96
2021/07/31 12:07:14;;;;;;;3.92;1.48;;;;;;;28.15;39.29;99968.53;4956387;28;20030;-96
2021/07/31 12:09:41;;;;;;;1.73;1.35;;;;;;;29.97;38.14;99962.31;4956297;28;20114;-96